Terminal Aerodrome Forecast
Issued by NWS

Home | Current Version | Previous Version | Graphics & Text | Print | Product List | Glossary On
Versions: 1 2 3 4 5 6 7 8 9 10 11 12 13
000
FTUS43 KICT 281120
TAFRSL
TAF
KRSL 281120Z 2812/2912 20012KT P6SM SCT100
     FM281500 24010KT P6SM SCT080
     FM281800 35012KT P6SM SCT250
     FM290200 VRB05KT P6SM SKC=

USA.gov is the U.S. government's official web portal to all federal, state and local government web resources and services.